sensor_id;sensor_type;location;lat;lon;timestamp;P1;durP1;ratioP1;P2;durP2;ratioP2
3231;SDS011;1628;48.884;9.210;2022-10-16T04:02:04;4.70;;;2.60;;
3231;SDS011;1628;48.884;9.210;2022-10-16T04:04:31;4.73;;;2.33;;
3231;SDS011;1628;48.884;9.210;2022-10-16T04:06:58;4.00;;;3.17;;
3231;SDS011;1628;48.884;9.210;2022-10-16T04:09:24;2.37;;;2.23;;
3231;SDS011;1628;48.884;9.210;2022-10-16T04:11:51;6.37;;;2.50;;
3231;SDS011;1628;48.884;9.210;2022-10-16T04:14:21;7.43;;;2.20;;
3231;SDS011;1628;48.884;9.210;2022-10-16T04:16:48;4.93;;;2.60;;
3231;SDS011;1628;48.884;9.210;2022-10-16T04:19:16;3.27;;;2.93;;
3231;SDS011;1628;48.884;9.210;2022-10-16T04:21:42;3.70;;;2.47;;
3231;SDS011;1628;48.884;9.210;2022-10-16T04:24:09;7.60;;;2.50;;
3231;SDS011;1628;48.884;9.210;2022-10-16T04:26:36;3.37;;;2.40;;
3231;SDS011;1628;48.884;9.210;2022-10-16T04:29:03;5.00;;;2.93;;
3231;SDS011;1628;48.884;9.210;2022-10-16T04:31:29;3.60;;;2.83;;
3231;SDS011;1628;48.884;9.210;2022-10-16T04:33:56;5.90;;;2.37;;
3231;SDS011;1628;48.884;9.210;2022-10-16T04:36:24;3.00;;;2.80;;
3231;SDS011;1628;48.884;9.210;2022-10-16T04:38:51;3.03;;;2.63;;
3231;SDS011;1628;48.884;9.210;2022-10-16T04:41:17;2.60;;;2.40;;
3231;SDS011;1628;48.884;9.210;2022-10-16T04:43:44;4.00;;;2.60;;
3231;SDS011;1628;48.884;9.210;2022-10-16T04:46:10;2.73;;;1.90;;
3231;SDS011;1628;48.884;9.210;2022-10-16T04:48:37;4.63;;;2.57;;
3231;SDS011;1628;48.884;9.210;2022-10-16T04:51:04;3.47;;;2.40;;
3231;SDS011;1628;48.884;9.210;2022-10-16T04:53:32;2.40;;;2.30;;
3231;SDS011;1628;48.884;9.210;2022-10-16T04:55:59;2.63;;;2.53;;
3231;SDS011;1628;48.884;9.210;2022-10-16T04:58:26;2.83;;;2.27;;
3231;SDS011;1628;48.884;9.210;2022-10-16T05:00:52;6.03;;;2.20;;
3231;SDS011;1628;48.884;9.210;2022-10-16T05:03:19;4.13;;;2.33;;
3231;SDS011;1628;48.884;9.210;2022-10-16T05:05:46;3.83;;;2.47;;
3231;SDS011;1628;48.884;9.210;2022-10-16T05:08:13;3.33;;;2.70;;
3231;SDS011;1628;48.884;9.210;2022-10-16T05:10:42;3.03;;;2.30;;
3231;SDS011;1628;48.884;9.210;2022-10-16T05:13:10;2.37;;;1.90;;
3231;SDS011;1628;48.884;9.210;2022-10-16T05:15:38;3.70;;;2.33;;
3231;SDS011;1628;48.884;9.210;2022-10-16T05:18:04;2.40;;;2.10;;
3231;SDS011;1628;48.884;9.210;2022-10-16T05:20:31;2.23;;;2.13;;
3231;SDS011;1628;48.884;9.210;2022-10-16T05:22:58;2.40;;;2.20;;
3231;SDS011;1628;48.884;9.210;2022-10-16T05:25:24;2.23;;;2.13;;
3231;SDS011;1628;48.884;9.210;2022-10-16T05:27:52;5.03;;;2.70;;
3231;SDS011;1628;48.884;9.210;2022-10-16T05:30:19;2.53;;;2.40;;
3231;SDS011;1628;48.884;9.210;2022-10-16T05:32:46;2.33;;;2.13;;
3231;SDS011;1628;48.884;9.210;2022-10-16T05:35:14;5.47;;;2.60;;
3231;SDS011;1628;48.884;9.210;2022-10-16T05:37:41;3.07;;;2.10;;
3231;SDS011;1628;48.884;9.210;2022-10-16T05:40:08;3.33;;;3.17;;
3231;SDS011;1628;48.884;9.210;2022-10-16T05:42:35;4.37;;;3.50;;
3231;SDS011;1628;48.884;9.210;2022-10-16T05:45:04;3.40;;;3.10;;
3231;SDS011;1628;48.884;9.210;2022-10-16T05:47:31;3.30;;;3.10;;
3231;SDS011;1628;48.884;9.210;2022-10-16T05:49:58;3.97;;;3.50;;
3231;SDS011;1628;48.884;9.210;2022-10-16T05:52:26;9.10;;;3.27;;
3231;SDS011;1628;48.884;9.210;2022-10-16T05:54:53;5.13;;;3.20;;
3231;SDS011;1628;48.884;9.210;2022-10-16T05:57:19;3.30;;;2.93;;
3231;SDS011;1628;48.884;9.210;2022-10-16T05:59:46;4.27;;;3.03;;
3231;SDS011;1628;48.884;9.210;2022-10-16T06:02:16;6.83;;;2.77;;
3231;SDS011;1628;48.884;9.210;2022-10-16T06:04:42;3.43;;;3.23;;
3231;SDS011;1628;48.884;9.210;2022-10-16T06:07:09;5.30;;;2.60;;
3231;SDS011;1628;48.884;9.210;2022-10-16T06:09:36;5.30;;;2.60;;
3231;SDS011;1628;48.884;9.210;2022-10-16T06:12:03;4.37;;;3.07;;
3231;SDS011;1628;48.884;9.210;2022-10-16T06:14:30;7.10;;;2.67;;
3231;SDS011;1628;48.884;9.210;2022-10-16T06:16:56;4.10;;;2.80;;
3231;SDS011;1628;48.884;9.210;2022-10-16T06:19:24;3.47;;;2.53;;
3231;SDS011;1628;48.884;9.210;2022-10-16T06:21:51;5.33;;;2.80;;
3231;SDS011;1628;48.884;9.210;2022-10-16T06:24:18;9.37;;;2.10;;
3231;SDS011;1628;48.884;9.210;2022-10-16T06:26:44;2.10;;;2.00;;
3231;SDS011;1628;48.884;9.210;2022-10-16T06:29:11;2.80;;;2.60;;
3231;SDS011;1628;48.884;9.210;2022-10-16T06:31:38;2.10;;;2.00;;
3231;SDS011;1628;48.884;9.210;2022-10-16T06:34:04;3.30;;;2.50;;
3231;SDS011;1628;48.884;9.210;2022-10-16T06:36:35;4.23;;;2.30;;
3231;SDS011;1628;48.884;9.210;2022-10-16T06:39:02;4.93;;;4.03;;
3231;SDS011;1628;48.884;9.210;2022-10-16T06:41:29;4.30;;;2.40;;
3231;SDS011;1628;48.884;9.210;2022-10-16T06:43:56;3.20;;;1.90;;
3231;SDS011;1628;48.884;9.210;2022-10-16T06:46:23;7.83;;;2.33;;
3231;SDS011;1628;48.884;9.210;2022-10-16T06:48:52;3.33;;;2.00;;
3231;SDS011;1628;48.884;9.210;2022-10-16T06:51:19;2.43;;;2.10;;
3231;SDS011;1628;48.884;9.210;2022-10-16T06:53:49;4.03;;;2.43;;
3231;SDS011;1628;48.884;9.210;2022-10-16T06:56:17;4.50;;;2.63;;
3231;SDS011;1628;48.884;9.210;2022-10-16T06:58:46;2.77;;;2.13;;
3231;SDS011;1628;48.884;9.210;2022-10-16T07:01:13;3.47;;;2.10;;
3231;SDS011;1628;48.884;9.210;2022-10-16T07:03:41;2.43;;;2.17;;
3231;SDS011;1628;48.884;9.210;2022-10-16T07:06:10;2.30;;;2.10;;
3231;SDS011;1628;48.884;9.210;2022-10-16T07:08:39;3.30;;;2.50;;
3231;SDS011;1628;48.884;9.210;2022-10-16T07:11:09;2.20;;;2.10;;
3231;SDS011;1628;48.884;9.210;2022-10-16T07:13:38;1.90;;;1.80;;
3231;SDS011;1628;48.884;9.210;2022-10-16T07:16:06;2.00;;;1.90;;
3231;SDS011;1628;48.884;9.210;2022-10-16T07:18:34;2.20;;;2.10;;
3231;SDS011;1628;48.884;9.210;2022-10-16T07:21:05;2.63;;;2.43;;
3231;SDS011;1628;48.884;9.210;2022-10-16T07:23:32;2.20;;;1.70;;
3231;SDS011;1628;48.884;9.210;2022-10-16T07:25:59;2.53;;;2.00;;
3231;SDS011;1628;48.884;9.210;2022-10-16T07:28:27;3.80;;;2.60;;
3231;SDS011;1628;48.884;9.210;2022-10-16T07:30:54;2.40;;;2.20;;
3231;SDS011;1628;48.884;9.210;2022-10-16T07:33:21;3.63;;;2.70;;
3231;SDS011;1628;48.884;9.210;2022-10-16T07:35:48;7.20;;;2.30;;
3231;SDS011;1628;48.884;9.210;2022-10-16T07:38:15;4.47;;;2.20;;
3231;SDS011;1628;48.884;9.210;2022-10-16T07:40:42;3.40;;;2.17;;
3231;SDS011;1628;48.884;9.210;2022-10-16T07:43:10;3.37;;;2.30;;
3231;SDS011;1628;48.884;9.210;2022-10-16T07:45:38;4.00;;;2.33;;
3231;SDS011;1628;48.884;9.210;2022-10-16T07:48:13;4.13;;;2.27;;
3231;SDS011;1628;48.884;9.210;2022-10-16T07:50:39;8.60;;;2.80;;
3231;SDS011;1628;48.884;9.210;2022-10-16T07:53:06;4.43;;;2.30;;
3231;SDS011;1628;48.884;9.210;2022-10-16T07:55:33;2.83;;;2.00;;
3231;SDS011;1628;48.884;9.210;2022-10-16T07:58:00;2.33;;;2.20;;
3231;SDS011;1628;48.884;9.210;2022-10-16T08:00:26;2.97;;;2.10;;
3231;SDS011;1628;48.884;9.210;2022-10-16T08:02:54;2.40;;;2.30;;
3231;SDS011;1628;48.884;9.210;2022-10-16T08:05:24;5.30;;;3.60;;
3231;SDS011;1628;48.884;9.210;2022-10-16T08:07:51;5.60;;;2.07;;
3231;SDS011;1628;48.884;9.210;2022-10-16T08:10:18;2.93;;;2.63;;
3231;SDS011;1628;48.884;9.210;2022-10-16T08:12:47;3.60;;;2.43;;
3231;SDS011;1628;48.884;9.210;2022-10-16T08:15:14;4.00;;;1.87;;
3231;SDS011;1628;48.884;9.210;2022-10-16T08:17:40;3.17;;;2.37;;
3231;SDS011;1628;48.884;9.210;2022-10-16T08:20:09;1.77;;;1.67;;
3231;SDS011;1628;48.884;9.210;2022-10-16T08:22:36;4.83;;;2.40;;
3231;SDS011;1628;48.884;9.210;2022-10-16T08:25:03;3.13;;;2.60;;
3231;SDS011;1628;48.884;9.210;2022-10-16T08:27:30;2.23;;;1.90;;
3231;SDS011;1628;48.884;9.210;2022-10-16T08:29:57;2.43;;;2.23;;
3231;SDS011;1628;48.884;9.210;2022-10-16T08:32:24;3.37;;;2.33;;
3231;SDS011;1628;48.884;9.210;2022-10-16T08:34:51;2.13;;;1.60;;
3231;SDS011;1628;48.884;9.210;2022-10-16T08:37:18;2.77;;;2.20;;
3231;SDS011;1628;48.884;9.210;2022-10-16T08:39:45;2.87;;;2.60;;
3231;SDS011;1628;48.884;9.210;2022-10-16T08:42:15;3.23;;;1.90;;
3231;SDS011;1628;48.884;9.210;2022-10-16T08:45:06;2.47;;;2.30;;
3231;SDS011;1628;48.884;9.210;2022-10-16T08:47:48;2.10;;;1.90;;
3231;SDS011;1628;48.884;9.210;2022-10-16T08:50:19;4.67;;;2.27;;
3231;SDS011;1628;48.884;9.210;2022-10-16T08:52:51;2.10;;;2.00;;
3231;SDS011;1628;48.884;9.210;2022-10-16T08:55:27;7.00;;;2.07;;
3231;SDS011;1628;48.884;9.210;2022-10-16T08:57:57;2.33;;;2.00;;
3231;SDS011;1628;48.884;9.210;2022-10-16T09:00:24;3.27;;;2.60;;
3231;SDS011;1628;48.884;9.210;2022-10-16T09:02:53;4.83;;;2.30;;
3231;SDS011;1628;48.884;9.210;2022-10-16T09:05:37;3.53;;;1.90;;
3231;SDS011;1628;48.884;9.210;2022-10-16T09:08:17;5.63;;;2.37;;
3231;SDS011;1628;48.884;9.210;2022-10-16T09:10:55;3.03;;;2.20;;
3231;SDS011;1628;48.884;9.210;2022-10-16T09:13:26;2.73;;;2.23;;
3231;SDS011;1628;48.884;9.210;2022-10-16T09:16:10;2.83;;;2.63;;
3231;SDS011;1628;48.884;9.210;2022-10-16T09:18:43;1.97;;;1.60;;
3231;SDS011;1628;48.884;9.210;2022-10-16T09:21:15;1.83;;;1.73;;
3231;SDS011;1628;48.884;9.210;2022-10-16T09:23:47;3.00;;;2.00;;
3231;SDS011;1628;48.884;9.210;2022-10-16T09:26:14;2.97;;;1.70;;
3231;SDS011;1628;48.884;9.210;2022-10-16T09:28:44;3.80;;;1.80;;
3231;SDS011;1628;48.884;9.210;2022-10-16T09:31:13;2.60;;;1.97;;
3231;SDS011;1628;48.884;9.210;2022-10-16T09:33:42;2.77;;;2.00;;
3231;SDS011;1628;48.884;9.210;2022-10-16T09:36:11;2.60;;;2.17;;
3231;SDS011;1628;48.884;9.210;2022-10-16T09:38:39;3.50;;;1.60;;
3231;SDS011;1628;48.884;9.210;2022-10-16T09:41:13;1.73;;;1.63;;
3231;SDS011;1628;48.884;9.210;2022-10-16T09:43:46;2.10;;;1.90;;
3231;SDS011;1628;48.884;9.210;2022-10-16T09:46:22;4.67;;;1.70;;
3231;SDS011;1628;48.884;9.210;2022-10-16T09:48:53;2.33;;;1.90;;
3231;SDS011;1628;48.884;9.210;2022-10-16T09:51:23;3.30;;;2.17;;
3231;SDS011;1628;48.884;9.210;2022-10-16T09:53:54;3.50;;;2.20;;
3231;SDS011;1628;48.884;9.210;2022-10-16T09:56:24;2.50;;;1.33;;
3231;SDS011;1628;48.884;9.210;2022-10-16T09:58:53;3.90;;;2.10;;
3231;SDS011;1628;48.884;9.210;2022-10-16T10:01:24;2.20;;;1.90;;
3231;SDS011;1628;48.884;9.210;2022-10-16T10:03:56;2.50;;;1.63;;
3231;SDS011;1628;48.884;9.210;2022-10-16T10:06:26;1.63;;;1.60;;
3231;SDS011;1628;48.884;9.210;2022-10-16T10:08:58;1.80;;;1.70;;
3231;SDS011;1628;48.884;9.210;2022-10-16T10:11:43;1.90;;;1.63;;
3231;SDS011;1628;48.884;9.210;2022-10-16T10:14:19;1.60;;;1.50;;
3231;SDS011;1628;48.884;9.210;2022-10-16T10:16:48;2.23;;;2.03;;
3231;SDS011;1628;48.884;9.210;2022-10-16T10:19:16;2.30;;;1.70;;
3231;SDS011;1628;48.884;9.210;2022-10-16T10:21:44;3.33;;;1.77;;
3231;SDS011;1628;48.884;9.210;2022-10-16T10:24:12;2.60;;;1.93;;
3231;SDS011;1628;48.884;9.210;2022-10-16T10:26:40;2.50;;;1.33;;
3231;SDS011;1628;48.884;9.210;2022-10-16T10:29:17;1.93;;;1.67;;
3231;SDS011;1628;48.884;9.210;2022-10-16T10:31:53;1.73;;;1.63;;
3231;SDS011;1628;48.884;9.210;2022-10-16T10:34:34;1.50;;;1.40;;
3231;SDS011;1628;48.884;9.210;2022-10-16T10:37:11;1.47;;;1.37;;
3231;SDS011;1628;48.884;9.210;2022-10-16T10:39:52;3.37;;;1.50;;
3231;SDS011;1628;48.884;9.210;2022-10-16T10:42:29;3.43;;;1.70;;
3231;SDS011;1628;48.884;9.210;2022-10-16T10:45:08;2.03;;;1.40;;
3231;SDS011;1628;48.884;9.210;2022-10-16T10:47:47;2.97;;;1.80;;
3231;SDS011;1628;48.884;9.210;2022-10-16T10:50:22;5.80;;;1.50;;
3231;SDS011;1628;48.884;9.210;2022-10-16T10:52:53;4.93;;;1.83;;
3231;SDS011;1628;48.884;9.210;2022-10-16T10:55:27;4.27;;;1.60;;
3231;SDS011;1628;48.884;9.210;2022-10-16T10:58:14;1.73;;;1.63;;
3231;SDS011;1628;48.884;9.210;2022-10-16T11:01:01;2.10;;;1.70;;
3231;SDS011;1628;48.884;9.210;2022-10-16T11:03:36;6.63;;;1.70;;
3231;SDS011;1628;48.884;9.210;2022-10-16T11:06:13;1.53;;;1.43;;
3231;SDS011;1628;48.884;9.210;2022-10-16T11:08:44;1.70;;;1.60;;
3231;SDS011;1628;48.884;9.210;2022-10-16T11:11:15;3.80;;;1.97;;
3231;SDS011;1628;48.884;9.210;2022-10-16T11:13:50;3.50;;;1.60;;
3231;SDS011;1628;48.884;9.210;2022-10-16T11:16:21;2.10;;;1.57;;
3231;SDS011;1628;48.884;9.210;2022-10-16T11:18:54;2.80;;;2.20;;
3231;SDS011;1628;48.884;9.210;2022-10-16T11:21:25;3.00;;;1.77;;
3231;SDS011;1628;48.884;9.210;2022-10-16T11:23:57;1.67;;;1.57;;
3231;SDS011;1628;48.884;9.210;2022-10-16T11:26:33;1.40;;;1.40;;
3231;SDS011;1628;48.884;9.210;2022-10-16T11:29:04;1.83;;;1.60;;
3231;SDS011;1628;48.884;9.210;2022-10-16T11:31:38;1.93;;;1.83;;
3231;SDS011;1628;48.884;9.210;2022-10-16T11:34:09;2.10;;;1.70;;
3231;SDS011;1628;48.884;9.210;2022-10-16T11:36:44;4.63;;;3.10;;
3231;SDS011;1628;48.884;9.210;2022-10-16T11:39:18;3.03;;;2.17;;
3231;SDS011;1628;48.884;9.210;2022-10-16T11:41:47;2.60;;;1.80;;
3231;SDS011;1628;48.884;9.210;2022-10-16T11:44:20;2.50;;;1.80;;
3231;SDS011;1628;48.884;9.210;2022-10-16T11:47:19;2.03;;;1.70;;
3231;SDS011;1628;48.884;9.210;2022-10-16T11:49:55;3.00;;;1.90;;
3231;SDS011;1628;48.884;9.210;2022-10-16T11:52:26;3.17;;;1.97;;
3231;SDS011;1628;48.884;9.210;2022-10-16T11:54:59;1.70;;;1.60;;
3231;SDS011;1628;48.884;9.210;2022-10-16T11:57:31;4.53;;;1.67;;
3231;SDS011;1628;48.884;9.210;2022-10-16T12:00:02;4.20;;;1.70;;
3231;SDS011;1628;48.884;9.210;2022-10-16T12:02:40;1.77;;;1.57;;
3231;SDS011;1628;48.884;9.210;2022-10-16T12:05:19;1.80;;;1.73;;
3231;SDS011;1628;48.884;9.210;2022-10-16T12:07:54;1.67;;;1.57;;
3231;SDS011;1628;48.884;9.210;2022-10-16T12:10:31;1.43;;;1.43;;
3231;SDS011;1628;48.884;9.210;2022-10-16T12:13:01;1.70;;;1.60;;
3231;SDS011;1628;48.884;9.210;2022-10-16T12:15:30;3.17;;;1.70;;
3231;SDS011;1628;48.884;9.210;2022-10-16T12:17:58;1.60;;;1.50;;
3231;SDS011;1628;48.884;9.210;2022-10-16T12:20:27;2.43;;;2.30;;
3231;SDS011;1628;48.884;9.210;2022-10-16T12:22:57;3.30;;;1.50;;
3231;SDS011;1628;48.884;9.210;2022-10-16T12:25:26;4.13;;;1.73;;
3231;SDS011;1628;48.884;9.210;2022-10-16T12:27:55;1.73;;;1.63;;
3231;SDS011;1628;48.884;9.210;2022-10-16T12:30:28;1.67;;;1.40;;
3231;SDS011;1628;48.884;9.210;2022-10-16T12:32:58;5.17;;;1.67;;
3231;SDS011;1628;48.884;9.210;2022-10-16T12:35:28;5.20;;;2.17;;
3231;SDS011;1628;48.884;9.210;2022-10-16T12:38:05;1.73;;;1.60;;
3231;SDS011;1628;48.884;9.210;2022-10-16T12:40:34;2.53;;;1.70;;
3231;SDS011;1628;48.884;9.210;2022-10-16T12:43:13;1.30;;;1.30;;
3231;SDS011;1628;48.884;9.210;2022-10-16T12:46:00;1.93;;;1.53;;
3231;SDS011;1628;48.884;9.210;2022-10-16T12:48:29;1.33;;;1.33;;
3231;SDS011;1628;48.884;9.210;2022-10-16T12:50:57;2.30;;;1.67;;
3231;SDS011;1628;48.884;9.210;2022-10-16T12:53:35;1.40;;;1.30;;
3231;SDS011;1628;48.884;9.210;2022-10-16T12:56:03;1.70;;;1.60;;
3231;SDS011;1628;48.884;9.210;2022-10-16T12:58:46;1.77;;;1.43;;
3231;SDS011;1628;48.884;9.210;2022-10-16T13:01:32;2.73;;;1.60;;
3231;SDS011;1628;48.884;9.210;2022-10-16T13:04:23;1.63;;;1.60;;
3231;SDS011;1628;48.884;9.210;2022-10-16T13:07:06;1.70;;;1.60;;
3231;SDS011;1628;48.884;9.210;2022-10-16T13:10:01;4.20;;;1.73;;
3231;SDS011;1628;48.884;9.210;2022-10-16T13:12:48;1.60;;;1.40;;
3231;SDS011;1628;48.884;9.210;2022-10-16T13:15:29;2.67;;;1.97;;
3231;SDS011;1628;48.884;9.210;2022-10-16T13:18:10;1.70;;;1.60;;
3231;SDS011;1628;48.884;9.210;2022-10-16T13:20:50;2.83;;;2.10;;
3231;SDS011;1628;48.884;9.210;2022-10-16T13:23:26;2.70;;;1.53;;
3231;SDS011;1628;48.884;9.210;2022-10-16T13:26:01;2.13;;;1.93;;
3231;SDS011;1628;48.884;9.210;2022-10-16T13:28:35;1.63;;;1.53;;
3231;SDS011;1628;48.884;9.210;2022-10-16T13:31:04;1.90;;;1.80;;
3231;SDS011;1628;48.884;9.210;2022-10-16T13:33:33;2.80;;;1.80;;
3231;SDS011;1628;48.884;9.210;2022-10-16T13:36:03;1.90;;;1.80;;
3231;SDS011;1628;48.884;9.210;2022-10-16T13:38:31;1.70;;;1.43;;
3231;SDS011;1628;48.884;9.210;2022-10-16T13:40:59;2.37;;;1.43;;
3231;SDS011;1628;48.884;9.210;2022-10-16T13:43:28;2.07;;;1.87;;
3231;SDS011;1628;48.884;9.210;2022-10-16T13:45:59;3.80;;;1.70;;
3231;SDS011;1628;48.884;9.210;2022-10-16T13:48:28;2.23;;;1.90;;
3231;SDS011;1628;48.884;9.210;2022-10-16T13:51:00;2.60;;;2.40;;
3231;SDS011;1628;48.884;9.210;2022-10-16T13:53:29;2.40;;;2.07;;
3231;SDS011;1628;48.884;9.210;2022-10-16T13:55:57;3.40;;;1.70;;
3231;SDS011;1628;48.884;9.210;2022-10-16T13:58:25;2.03;;;1.67;;
3231;SDS011;1628;48.884;9.210;2022-10-16T14:00:53;2.97;;;1.53;;
3231;SDS011;1628;48.884;9.210;2022-10-16T14:03:21;5.70;;;1.87;;
3231;SDS011;1628;48.884;9.210;2022-10-16T14:05:49;3.20;;;1.80;;
3231;SDS011;1628;48.884;9.210;2022-10-16T14:08:18;2.13;;;2.00;;
3231;SDS011;1628;48.884;9.210;2022-10-16T14:10:47;2.03;;;1.87;;
3231;SDS011;1628;48.884;9.210;2022-10-16T14:13:15;2.70;;;2.50;;
3231;SDS011;1628;48.884;9.210;2022-10-16T14:15:46;1.90;;;1.77;;
3231;SDS011;1628;48.884;9.210;2022-10-16T14:18:16;2.23;;;1.97;;
3231;SDS011;1628;48.884;9.210;2022-10-16T14:20:46;2.20;;;1.87;;
3231;SDS011;1628;48.884;9.210;2022-10-16T14:23:21;3.03;;;1.83;;
3231;SDS011;1628;48.884;9.210;2022-10-16T14:25:54;1.87;;;1.77;;
3231;SDS011;1628;48.884;9.210;2022-10-16T14:28:31;3.30;;;2.40;;
3231;SDS011;1628;48.884;9.210;2022-10-16T14:30:58;5.80;;;2.27;;
3231;SDS011;1628;48.884;9.210;2022-10-16T14:33:31;2.10;;;1.90;;
3231;SDS011;1628;48.884;9.210;2022-10-16T14:36:00;2.17;;;2.07;;
3231;SDS011;1628;48.884;9.210;2022-10-16T14:38:31;3.40;;;2.30;;
3231;SDS011;1628;48.884;9.210;2022-10-16T14:40:59;2.73;;;2.20;;
3231;SDS011;1628;48.884;9.210;2022-10-16T14:43:29;2.00;;;1.80;;
3231;SDS011;1628;48.884;9.210;2022-10-16T14:45:59;2.00;;;1.90;;
3231;SDS011;1628;48.884;9.210;2022-10-16T14:48:27;2.03;;;1.90;;
3231;SDS011;1628;48.884;9.210;2022-10-16T14:50:54;1.97;;;1.77;;
3231;SDS011;1628;48.884;9.210;2022-10-16T14:53:21;2.47;;;1.80;;
3231;SDS011;1628;48.884;9.210;2022-10-16T14:55:49;2.10;;;2.00;;
3231;SDS011;1628;48.884;9.210;2022-10-16T14:58:17;1.73;;;1.63;;
3231;SDS011;1628;48.884;9.210;2022-10-16T15:00:47;1.73;;;1.63;;
3231;SDS011;1628;48.884;9.210;2022-10-16T15:03:14;1.90;;;1.80;;
3231;SDS011;1628;48.884;9.210;2022-10-16T15:05:41;4.13;;;2.77;;
3231;SDS011;1628;48.884;9.210;2022-10-16T15:08:07;5.23;;;2.13;;
3231;SDS011;1628;48.884;9.210;2022-10-16T15:10:35;2.00;;;1.90;;
3231;SDS011;1628;48.884;9.210;2022-10-16T15:13:08;2.80;;;2.23;;
3231;SDS011;1628;48.884;9.210;2022-10-16T15:15:38;2.40;;;2.00;;
3231;SDS011;1628;48.884;9.210;2022-10-16T15:18:06;3.17;;;2.00;;
3231;SDS011;1628;48.884;9.210;2022-10-16T15:20:33;1.63;;;1.63;;
3231;SDS011;1628;48.884;9.210;2022-10-16T15:23:02;5.10;;;2.60;;
3231;SDS011;1628;48.884;9.210;2022-10-16T15:25:33;6.63;;;1.80;;
3231;SDS011;1628;48.884;9.210;2022-10-16T15:28:03;6.63;;;2.10;;
3231;SDS011;1628;48.884;9.210;2022-10-16T15:30:31;2.40;;;2.20;;
3231;SDS011;1628;48.884;9.210;2022-10-16T15:32:58;3.03;;;2.03;;
3231;SDS011;1628;48.884;9.210;2022-10-16T15:35:25;2.63;;;2.20;;
3231;SDS011;1628;48.884;9.210;2022-10-16T15:37:52;2.13;;;1.87;;
3231;SDS011;1628;48.884;9.210;2022-10-16T15:40:19;2.87;;;2.07;;
3231;SDS011;1628;48.884;9.210;2022-10-16T15:42:46;2.40;;;1.90;;
3231;SDS011;1628;48.884;9.210;2022-10-16T15:45:13;4.73;;;2.47;;
3231;SDS011;1628;48.884;9.210;2022-10-16T15:47:42;5.63;;;2.40;;
3231;SDS011;1628;48.884;9.210;2022-10-16T15:50:09;5.63;;;1.93;;
3231;SDS011;1628;48.884;9.210;2022-10-16T15:52:37;1.80;;;1.70;;
3231;SDS011;1628;48.884;9.210;2022-10-16T15:55:05;3.00;;;2.00;;
3231;SDS011;1628;48.884;9.210;2022-10-16T15:57:32;2.30;;;2.10;;
3231;SDS011;1628;48.884;9.210;2022-10-16T15:59:59;2.67;;;2.03;;
3231;SDS011;1628;48.884;9.210;2022-10-16T16:02:25;2.60;;;2.00;;
3231;SDS011;1628;48.884;9.210;2022-10-16T16:04:53;4.40;;;1.87;;
3231;SDS011;1628;48.884;9.210;2022-10-16T16:07:21;4.13;;;1.70;;
3231;SDS011;1628;48.884;9.210;2022-10-16T16:09:47;3.73;;;1.77;;
3231;SDS011;1628;48.884;9.210;2022-10-16T16:12:14;2.63;;;1.90;;
3231;SDS011;1628;48.884;9.210;2022-10-16T16:14:41;3.20;;;2.17;;
3231;SDS011;1628;48.884;9.210;2022-10-16T16:17:11;2.33;;;2.23;;
3231;SDS011;1628;48.884;9.210;2022-10-16T16:19:37;15.27;;;2.33;;
3231;SDS011;1628;48.884;9.210;2022-10-16T16:22:05;2.10;;;1.80;;
3231;SDS011;1628;48.884;9.210;2022-10-16T16:24:32;1.80;;;1.70;;
3231;SDS011;1628;48.884;9.210;2022-10-16T16:26:59;1.63;;;1.60;;
3231;SDS011;1628;48.884;9.210;2022-10-16T16:29:25;2.33;;;2.13;;
3231;SDS011;1628;48.884;9.210;2022-10-16T16:31:52;2.17;;;1.97;;
3231;SDS011;1628;48.884;9.210;2022-10-16T16:34:22;3.97;;;2.07;;
3231;SDS011;1628;48.884;9.210;2022-10-16T16:36:49;4.07;;;2.20;;
3231;SDS011;1628;48.884;9.210;2022-10-16T16:39:17;3.80;;;2.70;;
3231;SDS011;1628;48.884;9.210;2022-10-16T16:41:44;2.73;;;2.03;;
3231;SDS011;1628;48.884;9.210;2022-10-16T16:44:11;4.00;;;2.20;;
3231;SDS011;1628;48.884;9.210;2022-10-16T16:46:38;2.63;;;2.33;;
3231;SDS011;1628;48.884;9.210;2022-10-16T16:49:05;2.60;;;2.50;;
3231;SDS011;1628;48.884;9.210;2022-10-16T16:51:32;2.17;;;2.07;;
3231;SDS011;1628;48.884;9.210;2022-10-16T16:53:59;2.60;;;2.27;;
3231;SDS011;1628;48.884;9.210;2022-10-16T16:56:27;2.63;;;2.43;;
3231;SDS011;1628;48.884;9.210;2022-10-16T16:58:55;3.43;;;2.00;;
3231;SDS011;1628;48.884;9.210;2022-10-16T17:01:23;2.90;;;2.50;;
3231;SDS011;1628;48.884;9.210;2022-10-16T17:03:53;3.00;;;2.80;;
3231;SDS011;1628;48.884;9.210;2022-10-16T17:06:24;4.70;;;3.60;;
3231;SDS011;1628;48.884;9.210;2022-10-16T17:08:52;3.67;;;3.03;;
3231;SDS011;1628;48.884;9.210;2022-10-16T17:11:19;4.83;;;3.00;;
3231;SDS011;1628;48.884;9.210;2022-10-16T17:13:49;5.10;;;3.30;;
3231;SDS011;1628;48.884;9.210;2022-10-16T17:16:17;2.87;;;2.67;;
3231;SDS011;1628;48.884;9.210;2022-10-16T17:18:44;3.37;;;2.67;;
3231;SDS011;1628;48.884;9.210;2022-10-16T17:21:11;5.93;;;2.90;;
3231;SDS011;1628;48.884;9.210;2022-10-16T17:23:38;16.43;;;3.53;;
3231;SDS011;1628;48.884;9.210;2022-10-16T17:26:06;6.67;;;3.20;;
3231;SDS011;1628;48.884;9.210;2022-10-16T17:28:33;7.07;;;3.10;;
3231;SDS011;1628;48.884;9.210;2022-10-16T17:31:08;6.63;;;3.60;;
3231;SDS011;1628;48.884;9.210;2022-10-16T17:33:36;8.73;;;3.57;;
3231;SDS011;1628;48.884;9.210;2022-10-16T17:36:03;3.60;;;3.40;;
3231;SDS011;1628;48.884;9.210;2022-10-16T17:38:30;7.23;;;4.00;;
3231;SDS011;1628;48.884;9.210;2022-10-16T17:40:57;4.70;;;3.70;;
3231;SDS011;1628;48.884;9.210;2022-10-16T17:43:24;6.67;;;3.60;;
3231;SDS011;1628;48.884;9.210;2022-10-16T17:45:50;4.50;;;3.60;;
3231;SDS011;1628;48.884;9.210;2022-10-16T17:48:19;5.37;;;2.83;;
3231;SDS011;1628;48.884;9.210;2022-10-16T17:50:45;3.10;;;2.80;;
3231;SDS011;1628;48.884;9.210;2022-10-16T17:53:12;7.90;;;3.87;;
3231;SDS011;1628;48.884;9.210;2022-10-16T17:55:39;4.37;;;3.97;;
3231;SDS011;1628;48.884;9.210;2022-10-16T17:58:07;6.53;;;3.77;;
3231;SDS011;1628;48.884;9.210;2022-10-16T18:00:34;4.00;;;3.20;;
3231;SDS011;1628;48.884;9.210;2022-10-16T18:03:01;5.67;;;3.07;;
3231;SDS011;1628;48.884;9.210;2022-10-16T18:05:29;4.10;;;3.40;;
3231;SDS011;1628;48.884;9.210;2022-10-16T18:07:55;4.50;;;4.10;;
3231;SDS011;1628;48.884;9.210;2022-10-16T18:10:22;4.63;;;3.43;;
3231;SDS011;1628;48.884;9.210;2022-10-16T18:12:49;6.10;;;3.80;;
3231;SDS011;1628;48.884;9.210;2022-10-16T18:15:15;4.53;;;3.90;;
3231;SDS011;1628;48.884;9.210;2022-10-16T18:17:42;7.50;;;4.30;;
3231;SDS011;1628;48.884;9.210;2022-10-16T18:20:09;5.50;;;4.10;;
3231;SDS011;1628;48.884;9.210;2022-10-16T18:22:38;7.77;;;4.33;;
3231;SDS011;1628;48.884;9.210;2022-10-16T18:25:05;4.73;;;4.30;;
3231;SDS011;1628;48.884;9.210;2022-10-16T18:27:32;8.43;;;4.07;;
3231;SDS011;1628;48.884;9.210;2022-10-16T18:29:59;5.07;;;3.63;;
3231;SDS011;1628;48.884;9.210;2022-10-16T18:32:26;6.97;;;3.70;;
3231;SDS011;1628;48.884;9.210;2022-10-16T18:34:53;4.03;;;3.40;;
3231;SDS011;1628;48.884;9.210;2022-10-16T18:37:20;3.43;;;3.23;;
3231;SDS011;1628;48.884;9.210;2022-10-16T18:39:48;6.63;;;3.77;;
3231;SDS011;1628;48.884;9.210;2022-10-16T18:42:15;8.00;;;3.20;;
3231;SDS011;1628;48.884;9.210;2022-10-16T18:44:42;3.50;;;3.03;;
3231;SDS011;1628;48.884;9.210;2022-10-16T18:47:09;3.60;;;3.30;;
3231;SDS011;1628;48.884;9.210;2022-10-16T18:49:36;5.43;;;3.70;;
3231;SDS011;1628;48.884;9.210;2022-10-16T18:52:03;7.03;;;3.73;;
3231;SDS011;1628;48.884;9.210;2022-10-16T18:54:30;4.63;;;4.20;;
3231;SDS011;1628;48.884;9.210;2022-10-16T18:56:58;7.80;;;3.60;;
3231;SDS011;1628;48.884;9.210;2022-10-16T18:59:25;8.90;;;4.33;;
3231;SDS011;1628;48.884;9.210;2022-10-16T19:01:52;6.83;;;3.63;;
3231;SDS011;1628;48.884;9.210;2022-10-16T19:04:18;4.83;;;4.30;;
3231;SDS011;1628;48.884;9.210;2022-10-16T19:06:48;3.60;;;3.30;;
3231;SDS011;1628;48.884;9.210;2022-10-16T19:09:17;4.10;;;3.70;;
3231;SDS011;1628;48.884;9.210;2022-10-16T19:11:45;4.83;;;3.53;;
3231;SDS011;1628;48.884;9.210;2022-10-16T19:14:13;11.33;;;3.93;;
3231;SDS011;1628;48.884;9.210;2022-10-16T19:16:41;4.73;;;4.00;;
3231;SDS011;1628;48.884;9.210;2022-10-16T19:19:09;3.77;;;3.47;;
3231;SDS011;1628;48.884;9.210;2022-10-16T19:21:37;5.47;;;3.60;;
3231;SDS011;1628;48.884;9.210;2022-10-16T19:24:05;4.67;;;3.63;;
3231;SDS011;1628;48.884;9.210;2022-10-16T19:26:32;7.10;;;3.90;;
3231;SDS011;1628;48.884;9.210;2022-10-16T19:29:00;5.00;;;3.33;;
3231;SDS011;1628;48.884;9.210;2022-10-16T19:31:30;4.83;;;3.90;;